Time;durP1;ratioP1;P1;durP2;ratioP2;P2;SDS_P1;SDS_P2;PMS_P1;PMS_P2;Temp;Humidity;BMP_temperature;BMP_pressure;BME280_temperature;BME280_humidity;BME280_pressure;Samples;Min_cycle;Max_cycle;Signal;HPM_P1;HPM_P2
2021/01/16 00:01:17;;;;;;;23.32;8.95;;;;;;;-5.92;100.00;99353.63;4319945;81;43943;-75
2021/01/16 00:07:19;;;;;;;21.05;8.45;;;;;;;-5.93;100.00;99351.48;4365961;80;43932;-74
2021/01/16 00:13:26;;;;;;;27.80;10.00;;;;;;;-5.97;100.00;99359.69;4358581;81;43398;-74
2021/01/16 00:19:28;;;;;;;27.77;10.03;;;;;;;-5.97;100.00;99360.99;4317980;81;43466;-74
2021/01/16 00:25:33;;;;;;;22.95;8.88;;;;;;;-6.03;100.00;99376.27;4364614;81;43919;-74
2021/01/16 00:31:36;;;;;;;18.82;7.58;;;;;;;-6.16;100.00;99372.42;4346440;81;43927;-75
2021/01/16 00:37:39;;;;;;;19.75;7.55;;;;;;;-6.14;100.00;99377.55;4358654;81;43942;-75
2021/01/16 00:43:42;;;;;;;18.35;5.97;;;;;;;-6.09;100.00;99364.94;4369987;81;43918;-77
2021/01/16 00:49:45;;;;;;;15.90;5.25;;;;;;;-5.91;100.00;99374.45;4340737;81;43923;-76
2021/01/16 00:55:47;;;;;;;12.63;4.95;;;;;;;-5.88;100.00;99376.86;4340165;80;43552;-78
2021/01/16 01:01:49;;;;;;;14.28;5.00;;;;;;;-5.91;100.00;99384.92;4367239;81;43954;-77
2021/01/16 01:07:53;;;;;;;13.70;4.42;;;;;;;-5.79;100.00;99384.48;4369901;81;43249;-75
2021/01/16 01:13:55;;;;;;;9.30;3.40;;;;;;;-5.81;100.00;99387.70;4337816;81;42700;-75
2021/01/16 01:19:57;;;;;;;12.93;4.67;;;;;;;-5.79;100.00;99379.70;4312588;81;43229;-77
2021/01/16 01:25:59;;;;;;;11.43;4.58;;;;;;;-5.71;100.00;99381.26;4336482;80;43240;-75
2021/01/16 01:32:01;;;;;;;12.88;5.28;;;;;;;-5.75;100.00;99374.60;4362507;81;43554;-76
2021/01/16 01:38:04;;;;;;;11.30;4.37;;;;;;;-5.76;100.00;99385.54;4355641;81;43228;-75
2021/01/16 01:44:08;;;;;;;10.63;3.80;;;;;;;-5.63;100.00;99385.91;4352117;81;43244;-77
2021/01/16 01:50:13;;;;;;;8.20;3.70;;;;;;;-5.56;100.00;99381.87;4329318;80;42720;-77
2021/01/16 01:56:17;;;;;;;11.83;4.10;;;;;;;-5.63;100.00;99388.06;4355068;81;28603;-78
2021/01/16 02:02:21;;;;;;;10.60;4.20;;;;;;;-5.48;100.00;99392.59;4375024;80;43267;-78
2021/01/16 02:08:24;;;;;;;12.63;4.60;;;;;;;-5.40;100.00;99392.48;4402278;80;28551;-77
2021/01/16 02:14:30;;;;;;;9.93;4.40;;;;;;;-5.41;100.00;99386.89;4343299;81;42972;-77
2021/01/16 02:20:36;;;;;;;13.22;4.62;;;;;;;-5.43;100.00;99384.37;4377223;81;43258;-78
2021/01/16 02:27:02;;;;;;;14.03;5.28;;;;;;;-5.29;100.00;99377.21;4350988;81;43927;-78
2021/01/16 02:33:07;;;;;;;13.08;4.92;;;;;;;-5.48;100.00;99381.27;4325958;81;43346;-79
2021/01/16 02:39:15;;;;;;;19.67;6.47;;;;;;;-5.30;100.00;99375.09;4363112;81;28552;-78
2021/01/16 02:45:31;;;;;;;18.77;6.33;;;;;;;-5.35;100.00;99385.08;4370304;81;44033;-77
2021/01/16 02:52:12;;;;;;;14.58;5.70;;;;;;;-5.33;100.00;99385.33;4356930;81;43973;-78
2021/01/16 02:58:16;;;;;;;15.30;6.03;;;;;;;-5.35;100.00;99382.00;4342919;81;43942;-77
2021/01/16 03:04:18;;;;;;;16.67;6.33;;;;;;;-5.42;100.00;99384.73;4370713;81;28602;-77
2021/01/16 03:10:24;;;;;;;18.52;6.35;;;;;;;-5.56;100.00;99369.26;4319439;81;43915;-77
2021/01/16 03:16:28;;;;;;;14.35;5.47;;;;;;;-5.49;100.00;99365.19;4387505;80;28588;-77
2021/01/16 03:22:30;;;;;;;17.60;6.62;;;;;;;-5.54;100.00;99349.82;4420330;80;43888;-77
2021/01/16 03:28:32;;;;;;;18.75;6.00;;;;;;;-5.77;100.00;99343.77;4328519;82;43969;-77
2021/01/16 03:34:35;;;;;;;14.53;5.83;;;;;;;-5.79;100.00;99346.95;4351505;81;43915;-77
2021/01/16 03:40:37;;;;;;;13.75;5.20;;;;;;;-5.65;100.00;99352.45;4353245;81;43309;-77
2021/01/16 03:46:40;;;;;;;13.38;4.90;;;;;;;-5.27;100.00;99356.95;4345628;81;43244;-77
2021/01/16 03:52:42;;;;;;;11.33;4.53;;;;;;;-5.32;100.00;99339.80;4370211;81;43597;-78
2021/01/16 03:58:44;;;;;;;13.32;4.62;;;;;;;-5.11;100.00;99357.88;4365558;81;43242;-77
2021/01/16 04:04:47;;;;;;;10.13;4.20;;;;;;;-5.03;100.00;99339.75;4362939;81;43799;-77
2021/01/16 04:10:50;;;;;;;13.28;5.10;;;;;;;-5.08;100.00;99332.25;4356596;81;43272;-77
2021/01/16 04:16:52;;;;;;;11.50;4.67;;;;;;;-5.21;100.00;99327.14;4336527;82;43295;-77
2021/01/16 04:22:54;;;;;;;11.43;4.12;;;;;;;-5.20;100.00;99323.59;4370765;81;43224;-77
2021/01/16 04:28:56;;;;;;;10.48;4.08;;;;;;;-5.02;100.00;99320.92;4371548;81;43264;-77
2021/01/16 04:34:58;;;;;;;10.00;4.55;;;;;;;-5.12;100.00;99315.57;4368150;81;43225;-77
2021/01/16 04:41:01;;;;;;;10.53;4.17;;;;;;;-4.95;100.00;99318.14;4337444;81;43224;-78
2021/01/16 04:47:06;;;;;;;12.37;4.67;;;;;;;-4.84;100.00;99314.20;4337419;82;43216;-78
2021/01/16 04:53:09;;;;;;;;;;;;;;;-4.81;100.00;99317.88;4344385;82;28577;-78
2021/01/16 04:59:12;;;;;;;11.25;4.30;;;;;;;-4.90;100.00;99323.37;4340829;81;43248;-77
2021/01/16 05:05:14;;;;;;;10.00;3.90;;;;;;;-4.87;100.00;99330.66;4357068;81;43212;-77
2021/01/16 05:11:27;;;;;;;11.73;3.90;;;;;;;-4.97;100.00;99326.61;4321550;81;43233;-77
2021/01/16 05:17:32;;;;;;;10.25;4.67;;;;;;;-4.97;100.00;99333.17;4363732;81;43253;-77
2021/01/16 05:23:44;;;;;;;11.12;4.22;;;;;;;-5.16;100.00;99331.20;4363901;81;43275;-77
2021/01/16 05:29:46;;;;;;;11.50;4.58;;;;;;;-5.11;100.00;99334.27;4370572;81;43237;-77
2021/01/16 05:35:51;;;;;;;11.68;4.17;;;;;;;-5.14;100.00;99330.13;4370691;81;43354;-77
2021/01/16 05:42:03;;;;;;;10.50;4.33;;;;;;;-5.04;100.00;99331.06;4365300;81;28578;-79
2021/01/16 05:48:07;;;;;;;10.35;4.08;;;;;;;-4.99;100.00;99335.94;4366472;80;43240;-78
2021/01/16 05:54:12;;;;;;;16.02;5.60;;;;;;;-4.95;100.00;99325.55;4316491;81;44079;-79
2021/01/16 06:00:25;;;;;;;12.03;5.12;;;;;;;-4.95;100.00;99322.92;4350498;81;28536;-78
2021/01/16 06:06:30;;;;;;;13.10;5.33;;;;;;;-4.96;100.00;99326.97;4356389;81;43252;-79
2021/01/16 06:12:32;;;;;;;13.30;5.30;;;;;;;-4.98;100.00;99331.51;4334928;81;28587;-78
2021/01/16 06:18:38;;;;;;;13.95;5.70;;;;;;;-5.01;100.00;99324.72;4351265;81;43926;-79
2021/01/16 06:24:47;;;;;;;12.80;5.50;;;;;;;-4.98;100.00;99310.06;4320373;82;43319;-78
2021/01/16 06:30:56;;;;;;;15.55;5.97;;;;;;;-4.95;100.00;99308.96;4343828;81;43948;-78
2021/01/16 06:37:11;;;;;;;15.28;6.40;;;;;;;-4.87;100.00;99314.42;4274584;82;43960;-79
2021/01/16 06:43:16;;;;;;;14.40;6.50;;;;;;;-4.94;100.00;99306.72;4364324;81;28548;-79
2021/01/16 06:49:20;;;;;;;;;;;;;;;-4.90;100.00;99308.13;4383551;81;28593;-78
2021/01/16 06:55:22;;;;;;;17.52;7.70;;;;;;;-4.94;100.00;99308.03;4354481;80;44021;-79
2021/01/16 07:01:30;;;;;;;16.32;7.28;;;;;;;-4.95;100.00;99311.12;4346866;80;43966;-77
2021/01/16 07:07:36;;;;;;;16.73;7.33;;;;;;;-4.67;100.00;99308.03;4367432;81;43907;-78
2021/01/16 07:13:42;;;;;;;18.07;7.70;;;;;;;-4.54;100.00;99313.11;4352675;80;43936;-74
2021/01/16 07:19:45;;;;;;;18.40;8.50;;;;;;;-4.51;100.00;99313.69;4367574;80;28550;-75
2021/01/16 07:25:55;;;;;;;18.45;8.25;;;;;;;-4.41;100.00;99305.87;4362468;81;43943;-74
2021/01/16 07:31:59;;;;;;;19.07;8.75;;;;;;;-4.28;100.00;99293.88;4337434;81;44008;-74
2021/01/16 07:38:05;;;;;;;22.15;9.28;;;;;;;-4.14;100.00;99286.61;4352020;81;43922;-74
2021/01/16 07:44:10;;;;;;;24.70;9.68;;;;;;;-4.03;100.00;99285.72;4348037;80;28608;-73
2021/01/16 07:50:25;;;;;;;;;;;;;;;-3.92;100.00;99284.31;4361124;80;28540;-72
2021/01/16 07:56:40;;;;;;;20.48;9.75;;;;;;;-3.88;100.00;99291.45;4332195;81;20192;-72
2021/01/16 08:03:22;;;;;;;21.05;10.45;;;;;;;-3.73;100.00;99296.69;4343852;81;28573;-72
2021/01/16 08:09:52;;;;;;;23.15;9.50;;;;;;;-3.54;100.00;99295.10;4323308;81;43949;-74
2021/01/16 08:16:02;;;;;;;21.17;9.48;;;;;;;-3.41;100.00;99283.84;4346460;81;43908;-73
2021/01/16 08:22:15;;;;;;;23.07;10.60;;;;;;;-3.34;100.00;99275.44;4346342;81;44450;-74
2021/01/16 08:28:27;;;;;;;26.80;10.88;;;;;;;-3.53;100.00;99284.93;4364067;81;43220;-74
2021/01/16 08:34:58;;;;;;;26.15;10.95;;;;;;;-3.38;100.00;99274.40;4355578;81;42991;-75
2021/01/16 08:41:06;;;;;;;25.12;10.95;;;;;;;-3.15;100.00;99277.26;4350543;81;43650;-75
2021/01/16 08:47:14;;;;;;;25.20;11.00;;;;;;;-3.10;100.00;99281.14;4348109;80;43233;-74
2021/01/16 08:53:21;;;;;;;21.70;10.40;;;;;;;-3.01;100.00;99279.97;4360226;81;44474;-75
2021/01/16 08:59:34;;;;;;;24.37;10.00;;;;;;;-2.85;100.00;99273.69;4345981;81;44179;-76
2021/01/16 09:05:40;;;;;;;22.03;10.67;;;;;;;-2.65;100.00;99275.00;4365689;80;28516;-74
2021/01/16 09:11:56;;;;;;;20.17;8.75;;;;;;;-2.44;100.00;99281.91;4360178;81;43915;-73
2021/01/16 09:18:12;;;;;;;20.32;9.20;;;;;;;-2.42;100.00;99282.59;4322199;80;43996;-73
2021/01/16 09:24:22;;;;;;;20.65;9.88;;;;;;;-2.15;100.00;99286.27;4356161;81;44443;-75
2021/01/16 09:30:31;;;;;;;20.80;9.75;;;;;;;-2.04;100.00;99288.73;4356197;80;43967;-76
2021/01/16 09:36:47;;;;;;;24.07;10.60;;;;;;;-2.00;100.00;99280.90;4318443;81;44475;-75
2021/01/16 09:42:49;;;;;;;19.20;9.58;;;;;;;-1.79;100.00;99281.64;4316499;81;44076;-75
2021/01/16 09:48:51;;;;;;;22.15;10.20;;;;;;;-1.82;100.00;99272.25;4315211;81;44451;-76
2021/01/16 09:54:55;;;;;;;21.73;9.70;;;;;;;-1.90;100.00;99271.63;4306044;81;43903;-75
2021/01/16 10:01:22;;;;;;;22.52;10.88;;;;;;;-2.23;100.00;99264.59;4285880;81;44487;-75
2021/01/16 10:07:30;;;;;;;18.80;9.50;;;;;;;-2.00;100.00;99266.41;4320479;81;43927;-74
2021/01/16 10:13:38;;;;;;;21.40;10.32;;;;;;;-2.00;100.00;99259.81;4298768;81;44427;-73
2021/01/16 10:19:42;;;;;;;22.87;10.75;;;;;;;-1.90;100.00;99257.64;4299379;82;44452;-70
2021/01/16 10:25:45;;;;;;;24.55;10.98;;;;;;;-2.00;100.00;99241.38;4362783;80;43663;-73
2021/01/16 10:31:47;;;;;;;19.62;9.50;;;;;;;-1.81;100.00;99250.17;4358143;80;43903;-74
2021/01/16 10:37:56;;;;;;;18.43;7.97;;;;;;;-1.77;100.00;99239.67;4361866;81;34411;-75
2021/01/16 10:44:06;;;;;;;20.92;8.73;;;;;;;-1.62;100.00;99224.67;4351985;81;43950;-75
2021/01/16 10:50:16;;;;;;;24.85;10.20;;;;;;;-2.07;100.00;99228.92;4365239;80;44514;-75
2021/01/16 10:56:26;;;;;;;22.55;9.78;;;;;;;-1.78;100.00;99217.40;4372997;81;43948;-74
2021/01/16 11:02:38;;;;;;;19.12;9.08;;;;;;;-2.03;100.00;99214.47;4318745;80;43926;-74
2021/01/16 11:08:40;;;;;;;19.12;8.63;;;;;;;-1.86;100.00;99203.64;4361814;81;43923;-79
2021/01/16 11:14:43;;;;;;;23.25;10.48;;;;;;;-1.77;100.00;99197.97;4362306;80;44445;-75
2021/01/16 11:20:50;;;;;;;23.45;9.60;;;;;;;-1.71;100.00;99190.80;4314484;81;43964;-75
2021/01/16 11:26:55;;;;;;;23.75;9.75;;;;;;;-1.74;100.00;99187.96;4383964;80;43918;-75
2021/01/16 11:33:01;;;;;;;17.67;7.87;;;;;;;-1.83;100.00;99176.98;4311280;82;28555;-75
2021/01/16 11:39:04;;;;;;;21.95;9.70;;;;;;;-1.89;100.00;99170.50;4293865;81;43908;-74
2021/01/16 11:45:10;;;;;;;25.37;10.15;;;;;;;-1.53;100.00;99160.49;4312544;82;42890;-76
2021/01/16 11:51:16;;;;;;;22.00;11.05;;;;;;;-1.41;100.00;99159.31;4331690;81;44459;-74
2021/01/16 11:57:22;;;;;;;22.80;10.55;;;;;;;-1.28;100.00;99143.09;4318388;82;44436;-73
2021/01/16 12:03:25;;;;;;;24.65;10.32;;;;;;;-1.23;100.00;99138.67;4344935;82;44440;-73
2021/01/16 12:09:28;;;;;;;22.87;10.78;;;;;;;-1.41;100.00;99143.97;4368845;81;44471;-75
2021/01/16 12:15:32;;;;;;;23.40;11.28;;;;;;;-1.48;100.00;99149.02;4358138;81;43667;-75
2021/01/16 12:21:38;;;;;;;21.87;10.20;;;;;;;-1.17;100.00;99129.32;4357752;82;44443;-75
2021/01/16 12:27:51;;;;;;;20.82;9.53;;;;;;;-1.12;100.00;99122.60;4333015;82;43899;-74
2021/01/16 12:33:53;;;;;;;20.57;10.08;;;;;;;-1.11;100.00;99107.61;4357758;81;44489;-74
2021/01/16 12:39:57;;;;;;;20.02;9.75;;;;;;;-1.45;100.00;99107.83;4343129;80;43907;-74
2021/01/16 12:46:06;;;;;;;17.27;8.63;;;;;;;-1.50;100.00;99106.63;4341896;80;43913;-73
2021/01/16 12:52:10;;;;;;;16.90;8.33;;;;;;;-1.37;100.00;99107.57;4343157;82;43951;-75
2021/01/16 12:58:12;;;;;;;17.12;8.23;;;;;;;-1.28;100.00;99094.28;4344036;82;43903;-75
2021/01/16 13:04:16;;;;;;;16.52;7.62;;;;;;;-1.64;100.00;99096.12;4350589;82;43903;-74
2021/01/16 13:10:21;;;;;;;14.38;6.65;;;;;;;-1.81;100.00;99090.70;4312453;82;43943;-77
2021/01/16 13:16:28;;;;;;;13.27;6.30;;;;;;;-2.16;100.00;99093.14;4344033;82;28584;-76
2021/01/16 13:22:31;;;;;;;11.97;5.22;;;;;;;-2.28;100.00;99093.00;4356642;81;43236;-76
2021/01/16 13:28:47;;;;;;;11.78;5.10;;;;;;;-2.23;100.00;99099.96;4334315;82;43257;-76
2021/01/16 13:35:02;;;;;;;11.80;4.50;;;;;;;-2.35;100.00;99091.92;4324266;81;43241;-77
2021/01/16 13:41:04;;;;;;;6.85;3.55;;;;;;;-2.49;100.00;99096.70;4396529;80;42519;-75
2021/01/16 13:47:09;;;;;;;8.18;3.40;;;;;;;-2.75;100.00;99098.66;4335409;80;42712;-73
2021/01/16 13:53:12;;;;;;;5.90;3.03;;;;;;;-2.77;100.00;99082.18;4307400;81;34090;-77
2021/01/16 13:59:24;;;;;;;6.97;3.58;;;;;;;-2.83;100.00;99090.17;4328608;81;42239;-78
2021/01/16 14:05:29;;;;;;;8.03;3.58;;;;;;;-2.83;100.00;99075.70;4382253;80;42703;-81
2021/01/16 14:11:44;;;;;;;13.70;5.65;;;;;;;-2.94;100.00;99066.66;4359906;80;43583;-78
2021/01/16 14:17:46;;;;;;;11.93;6.37;;;;;;;-3.03;100.00;99070.95;4376937;80;43209;-79
2021/01/16 14:23:51;;;;;;;15.93;6.55;;;;;;;-2.81;100.00;99063.72;4317268;81;43914;-77
2021/01/16 14:29:52;;;;;;;14.70;6.70;;;;;;;-2.77;100.00;99065.08;4362301;81;43997;-77
2021/01/16 14:35:54;;;;;;;14.58;6.65;;;;;;;-2.94;100.00;99071.42;4324850;81;43932;-79
2021/01/16 14:41:57;;;;;;;14.75;5.95;;;;;;;-2.92;100.00;99069.97;4349202;81;43907;-78
2021/01/16 14:48:12;;;;;;;15.18;6.70;;;;;;;-3.03;100.00;99084.61;4349737;81;43946;-77
2021/01/16 14:54:14;;;;;;;14.38;6.55;;;;;;;-3.11;100.00;99069.05;4357038;81;28601;-77
2021/01/16 15:00:28;;;;;;;16.75;6.70;;;;;;;-3.16;100.00;99069.97;4355041;80;43907;-77
2021/01/16 15:06:50;;;;;;;11.85;4.95;;;;;;;-3.25;100.00;99080.83;4347193;80;28597;-77
2021/01/16 15:12:53;;;;;;;12.73;5.37;;;;;;;-3.48;100.00;99086.05;4351987;80;43232;-78
2021/01/16 15:18:55;;;;;;;11.83;4.97;;;;;;;-3.49;100.00;99074.70;4363638;80;43272;-78
2021/01/16 15:24:59;;;;;;;13.18;6.17;;;;;;;-3.50;100.00;99083.55;4351767;80;43567;-78
2021/01/16 15:31:09;;;;;;;11.48;5.17;;;;;;;-3.52;100.00;99074.98;4336613;81;43302;-79
2021/01/16 15:37:11;;;;;;;12.53;5.60;;;;;;;-3.75;100.00;99083.15;4330589;80;43209;-77
2021/01/16 15:43:16;;;;;;;13.62;5.35;;;;;;;-3.89;100.00;99085.69;4337611;80;43562;-77
2021/01/16 15:49:18;;;;;;;10.80;4.62;;;;;;;-4.15;100.00;99088.00;4345984;80;28611;-78
2021/01/16 15:55:21;;;;;;;9.85;4.12;;;;;;;-4.11;100.00;99089.41;4331773;80;43244;-79
2021/01/16 16:01:25;;;;;;;14.10;5.05;;;;;;;-4.02;100.00;99087.26;4337517;80;43241;-78
2021/01/16 16:07:27;;;;;;;15.85;6.75;;;;;;;-4.02;100.00;99083.81;4337272;80;43966;-78
2021/01/16 16:13:36;;;;;;;19.17;6.87;;;;;;;-3.98;100.00;99068.97;4345148;80;43986;-78
2021/01/16 16:19:37;;;;;;;21.02;8.88;;;;;;;-3.84;100.00;99064.27;4350380;80;43979;-77
2021/01/16 16:25:39;;;;;;;25.52;8.73;;;;;;;-3.94;100.00;99067.71;4341892;80;43522;-77
2021/01/16 16:31:43;;;;;;;23.62;9.08;;;;;;;-4.03;100.00;99069.03;4341138;80;43931;-78
2021/01/16 16:37:59;;;;;;;28.77;11.48;;;;;;;-4.15;100.00;99066.99;4334205;81;43398;-79
2021/01/16 16:44:01;;;;;;;25.40;10.28;;;;;;;-4.34;100.00;99071.23;4363980;81;43588;-78
2021/01/16 16:50:05;;;;;;;26.70;9.78;;;;;;;-4.53;100.00;99041.36;4363247;80;43051;-78
2021/01/16 16:56:07;;;;;;;23.30;10.17;;;;;;;-4.47;100.00;99033.44;4388827;81;28596;-77
2021/01/16 17:02:09;;;;;;;26.80;10.00;;;;;;;-4.59;100.00;99039.27;4391852;81;43503;-76
2021/01/16 17:08:12;;;;;;;28.15;9.78;;;;;;;-4.58;100.00;99027.80;4391711;81;43133;-78
2021/01/16 17:14:14;;;;;;;22.52;9.70;;;;;;;-4.58;100.00;99026.48;4381414;81;43914;-77
2021/01/16 17:20:16;;;;;;;22.13;8.80;;;;;;;-4.49;100.00;99013.03;4391247;81;43962;-75
2021/01/16 17:26:18;;;;;;;21.87;8.65;;;;;;;-4.54;100.00;99012.13;4391275;81;43977;-76
2021/01/16 17:32:24;;;;;;;21.05;7.97;;;;;;;-4.71;100.00;98992.61;4320787;81;43948;-76
2021/01/16 17:38:25;;;;;;;17.03;7.27;;;;;;;-4.66;100.00;98973.38;4341025;81;28583;-76
2021/01/16 17:44:31;;;;;;;22.50;7.75;;;;;;;-4.69;100.00;98958.38;4353822;80;43946;-76
2021/01/16 17:50:33;;;;;;;16.57;5.75;;;;;;;-4.86;100.00;98951.48;4367754;81;43930;-77
2021/01/16 17:56:35;;;;;;;14.95;6.12;;;;;;;-4.83;100.00;98935.51;4352316;81;43935;-78
2021/01/16 18:02:37;;;;;;;16.62;5.55;;;;;;;-4.83;100.00;98933.35;4338850;81;43922;-77
2021/01/16 18:08:40;;;;;;;14.55;5.50;;;;;;;-4.83;100.00;98932.04;4344324;81;43959;-76
2021/01/16 18:14:43;;;;;;;12.63;6.03;;;;;;;-4.85;100.00;98911.18;4356216;81;43934;-76
2021/01/16 18:20:45;;;;;;;12.18;4.87;;;;;;;-4.84;100.00;98919.42;4342228;81;43272;-77
2021/01/16 18:26:47;;;;;;;15.80;5.30;;;;;;;-4.83;100.00;98907.12;4357829;81;43954;-78
2021/01/16 18:32:51;;;;;;;13.00;5.05;;;;;;;-4.86;100.00;98901.66;4359917;81;43232;-77
2021/01/16 18:38:54;;;;;;;;;;;;;;;-4.88;100.00;98894.91;4355116;81;28556;-77
2021/01/16 18:44:56;;;;;;;15.53;5.28;;;;;;;-5.05;100.00;98884.09;4357041;81;43923;-77
2021/01/16 18:50:59;;;;;;;15.03;5.67;;;;;;;-4.92;100.00;98878.61;4355357;81;43945;-77
2021/01/16 18:57:04;;;;;;;13.95;4.90;;;;;;;-5.04;100.00;98874.80;4354023;80;43273;-77
2021/01/16 19:03:06;;;;;;;15.68;6.92;;;;;;;-5.02;100.00;98868.09;4340624;81;28958;-77
2021/01/16 19:09:10;;;;;;;14.93;5.92;;;;;;;-5.09;100.00;98859.94;4371703;80;44326;-78
2021/01/16 19:15:13;;;;;;;19.52;6.62;;;;;;;-4.97;100.00;98858.50;4353756;80;28971;-78
2021/01/16 19:21:17;;;;;;;19.40;7.50;;;;;;;-4.86;100.00;98851.01;4308806;81;43998;-78
2021/01/16 19:27:20;;;;;;;16.63;6.30;;;;;;;-4.85;100.00;98846.11;4321254;81;28551;-77
2021/01/16 19:33:22;;;;;;;15.53;6.55;;;;;;;-4.78;100.00;98837.55;4332081;81;43963;-77
2021/01/16 19:39:24;;;;;;;17.87;6.95;;;;;;;-4.82;100.00;98827.00;4325410;81;43944;-77
2021/01/16 19:45:28;;;;;;;16.12;6.92;;;;;;;-4.87;100.00;98831.00;4297178;81;43941;-79
2021/01/16 19:51:45;;;;;;;18.55;6.60;;;;;;;-4.85;100.00;98825.94;4311634;81;44137;-77
2021/01/16 19:57:47;;;;;;;12.73;5.72;;;;;;;-4.84;100.00;98812.36;4305696;81;43327;-81
2021/01/16 20:03:50;;;;;;;13.05;6.15;;;;;;;-4.87;100.00;98808.70;4345184;82;44009;-79
2021/01/16 20:09:53;;;;;;;14.85;6.35;;;;;;;-4.76;100.00;98805.44;4346017;79;43936;-80
2021/01/16 20:15:55;;;;;;;16.15;5.80;;;;;;;-4.88;100.00;98803.12;4294680;81;43921;-79
2021/01/16 20:21:58;;;;;;;16.00;6.67;;;;;;;-4.87;100.00;98800.84;4356061;82;43918;-79
2021/01/16 20:28:02;;;;;;;15.93;6.72;;;;;;;-5.02;100.00;98792.05;4374488;80;28547;-81
2021/01/16 20:34:05;;;;;;;19.25;6.55;;;;;;;-5.02;100.00;98795.17;4399114;81;43938;-80
2021/01/16 20:40:09;;;;;;;16.17;6.75;;;;;;;-5.05;100.00;98776.59;4398460;80;43949;-79
2021/01/16 20:46:13;;;;;;;15.70;7.40;;;;;;;-5.01;100.00;98777.97;4399412;81;44007;-80
2021/01/16 20:52:16;;;;;;;18.30;8.03;;;;;;;-5.06;100.00;98773.63;4465900;79;28598;-77
2021/01/16 20:58:18;;;;;;;15.98;7.08;;;;;;;-5.09;100.00;98761.62;4313492;82;43986;-77
2021/01/16 21:04:21;;;;;;;19.45;8.35;;;;;;;-5.01;100.00;98760.92;4395120;80;43933;-78
2021/01/16 21:10:23;;;;;;;16.32;7.03;;;;;;;-4.99;100.00;98751.62;4372786;81;43918;-79
2021/01/16 21:16:25;;;;;;;16.73;7.08;;;;;;;-4.94;100.00;98747.61;4390816;81;43939;-78
2021/01/16 21:22:30;;;;;;;18.00;7.80;;;;;;;-5.01;100.00;98736.02;4364715;81;43929;-76
2021/01/16 21:28:31;;;;;;;19.35;8.68;;;;;;;-4.91;100.00;98737.34;4340232;81;44890;-78
2021/01/16 21:34:34;;;;;;;17.57;8.08;;;;;;;-4.91;100.00;98742.58;4330679;81;43915;-79
2021/01/16 21:40:37;;;;;;;21.25;8.73;;;;;;;-4.90;100.00;98744.23;4331362;81;43965;-80
2021/01/16 21:46:42;;;;;;;14.83;6.08;;;;;;;-4.98;100.00;98747.56;4331776;82;43911;-76
2021/01/16 21:52:50;;;;;;;21.30;8.20;;;;;;;-4.88;100.00;98744.92;4327187;81;28559;-81
2021/01/16 21:58:52;;;;;;;21.82;8.43;;;;;;;-4.79;100.00;98739.31;4295886;82;43960;-82
2021/01/16 22:04:54;;;;;;;17.98;7.37;;;;;;;-4.79;100.00;98736.69;4295856;81;43908;-79
2021/01/16 22:10:56;;;;;;;22.13;9.30;;;;;;;-4.72;100.00;98746.16;4355490;81;43946;-81
2021/01/16 22:16:59;;;;;;;19.70;7.62;;;;;;;-4.75;100.00;98735.45;4362498;81;43915;-84
2021/01/16 22:23:01;;;;;;;19.50;7.70;;;;;;;-4.68;100.00;98730.47;4370554;81;43931;-81
2021/01/16 22:29:05;;;;;;;19.62;7.85;;;;;;;-4.62;100.00;98728.61;4368310;81;43918;-83
2021/01/16 22:35:08;;;;;;;20.82;7.80;;;;;;;-4.74;100.00;98725.30;4342264;81;43969;-83
2021/01/16 22:41:11;;;;;;;23.15;9.43;;;;;;;-4.69;100.00;98719.14;4355955;81;43940;-83
2021/01/16 22:47:12;;;;;;;23.25;9.23;;;;;;;-4.67;100.00;98709.83;4295468;82;43932;-83
2021/01/16 22:53:15;;;;;;;23.10;8.50;;;;;;;-4.65;100.00;98702.63;4354770;81;44027;-84
2021/01/16 22:59:19;;;;;;;22.70;9.28;;;;;;;-4.62;100.00;98699.75;4360785;80;43935;-84
2021/01/16 23:05:22;;;;;;;15.28;6.67;;;;;;;-4.66;100.00;98676.91;4381782;80;28587;-84
2021/01/16 23:11:24;;;;;;;24.15;9.80;;;;;;;-4.60;100.00;98684.69;4336667;81;43954;-83
2021/01/16 23:17:26;;;;;;;23.38;9.45;;;;;;;-4.57;100.00;98688.83;4365126;81;43954;-83
2021/01/16 23:23:30;;;;;;;21.82;8.58;;;;;;;-4.57;100.00;98674.41;4369151;80;43934;-83
2021/01/16 23:29:33;;;;;;;17.32;8.10;;;;;;;-4.49;100.00;98669.24;4370730;81;43920;-84
2021/01/16 23:35:35;;;;;;;21.35;8.25;;;;;;;-4.59;100.00;98657.95;4371054;81;43938;-85
2021/01/16 23:41:37;;;;;;;22.40;9.63;;;;;;;-4.49;100.00;98661.37;4371698;81;43927;-84
2021/01/16 23:47:40;;;;;;;18.55;7.72;;;;;;;-4.48;100.00;98648.11;4370621;81;44059;-84
2021/01/16 23:53:42;;;;;;;19.32;8.00;;;;;;;-4.42;100.00;98638.02;4371177;81;43910;-84
2021/01/16 23:59:45;;;;;;;22.48;8.45;;;;;;;-4.48;100.00;98632.37;4370634;81;43960;-83
